createdAt,value
2017-09-17T00:00:32.905Z,92.50
2017-09-17T00:03:02.110Z,92.70
2017-09-17T00:05:31.269Z,92.80
2017-09-17T00:07:59.686Z,92.80
2017-09-17T00:10:28.845Z,92.90
2017-09-17T00:12:57.245Z,92.90
2017-09-17T00:15:25.661Z,92.90
2017-09-17T00:17:54.057Z,92.90
2017-09-17T00:20:22.448Z,92.90
2017-09-17T00:22:50.856Z,93.00
2017-09-17T00:25:19.254Z,93.00
2017-09-17T00:27:48.420Z,92.90
2017-09-17T00:30:17.038Z,92.90
2017-09-17T00:32:46.724Z,92.50
2017-09-17T00:35:16.199Z,92.50
2017-09-17T00:37:46.679Z,92.50
2017-09-17T00:40:15.644Z,92.50
2017-09-17T00:42:44.257Z,92.60
2017-09-17T00:45:12.669Z,92.70
2017-09-17T00:47:41.068Z,92.60
2017-09-17T00:50:09.120Z,92.70
2017-09-17T00:52:36.654Z,92.30
2017-09-17T00:55:04.171Z,92.10
2017-09-17T00:57:32.266Z,92.10
2017-09-17T01:00:01.457Z,92.30
2017-09-17T01:02:30.619Z,92.40
2017-09-17T01:04:59.020Z,92.40
2017-09-17T01:07:28.200Z,92.10
2017-09-17T01:09:56.633Z,92.10
2017-09-17T01:12:25.027Z,92.00
2017-09-17T01:14:54.578Z,92.20
2017-09-17T01:17:25.728Z,92.30
2017-09-17T01:19:54.913Z,92.10
2017-09-17T01:22:24.266Z,92.40
2017-09-17T01:24:53.132Z,92.20
2017-09-17T01:27:21.579Z,92.20
2017-09-17T01:29:50.073Z,92.30
2017-09-17T01:32:19.251Z,92.50
2017-09-17T01:34:47.639Z,92.50
2017-09-17T01:37:16.810Z,92.40
2017-09-17T01:39:45.213Z,92.20
2017-09-17T01:42:14.371Z,92.60
2017-09-17T01:44:42.773Z,92.30
2017-09-17T01:47:11.165Z,92.50
2017-09-17T01:49:40.329Z,93.00
2017-09-17T01:52:08.734Z,92.60
2017-09-17T01:54:37.131Z,92.80
2017-09-17T01:57:06.287Z,93.00
2017-09-17T01:59:34.700Z,93.00
2017-09-17T02:02:04.647Z,93.20
2017-09-17T02:04:33.081Z,93.20
2017-09-17T02:07:02.538Z,93.30
2017-09-17T02:09:32.691Z,93.20
2017-09-17T02:12:01.947Z,93.10
2017-09-17T02:14:31.261Z,93.20
2017-09-17T02:16:59.764Z,93.20
2017-09-17T02:19:28.943Z,93.30
2017-09-17T02:21:57.434Z,93.20
2017-09-17T02:24:25.831Z,93.20
2017-09-17T02:26:54.217Z,93.30
2017-09-17T02:29:22.625Z,93.20
2017-09-17T02:31:51.106Z,93.20
2017-09-17T02:34:19.521Z,93.10
2017-09-17T02:36:47.932Z,93.10
2017-09-17T02:39:17.096Z,93.40
2017-09-17T02:41:45.500Z,93.10
2017-09-17T02:44:15.425Z,93.20
2017-09-17T02:46:44.593Z,92.90
2017-09-17T02:49:12.988Z,92.90
2017-09-17T02:51:41.506Z,92.80
2017-09-17T02:54:10.070Z,92.90
2017-09-17T02:56:40.547Z,92.80
2017-09-17T02:59:10.105Z,92.80
2017-09-17T03:01:39.149Z,92.70
2017-09-17T03:04:11.471Z,92.90
2017-09-17T03:06:40.171Z,92.90
2017-09-17T03:09:08.580Z,92.90
2017-09-17T03:11:36.972Z,92.90
2017-09-17T03:14:05.399Z,92.90
2017-09-17T03:16:33.864Z,92.90
2017-09-17T03:19:02.842Z,92.80
2017-09-17T03:21:31.256Z,92.80
2017-09-17T03:23:59.784Z,92.60
2017-09-17T03:26:28.168Z,92.40
2017-09-17T03:28:57.340Z,92.20
2017-09-17T03:31:25.784Z,92.20
2017-09-17T03:33:54.276Z,92.10
2017-09-17T03:36:22.676Z,92.10
2017-09-17T03:38:50.881Z,92.30
2017-09-17T03:41:20.731Z,92.30
2017-09-17T03:43:49.350Z,92.50
2017-09-17T03:46:18.602Z,92.40
2017-09-17T03:48:47.760Z,92.40
2017-09-17T03:51:16.496Z,92.40
2017-09-17T03:53:44.882Z,92.40
2017-09-17T03:56:13.282Z,92.70
2017-09-17T03:58:41.933Z,92.50
2017-09-17T04:01:10.317Z,92.60
2017-09-17T04:03:38.709Z,92.90
2017-09-17T04:06:07.141Z,93.00
2017-09-17T04:08:36.296Z,92.90
2017-09-17T04:11:04.681Z,92.90
2017-09-17T04:13:33.093Z,93.00
2017-09-17T04:16:02.279Z,93.10
2017-09-17T04:18:30.669Z,93.10
2017-09-17T04:20:59.831Z,92.70
2017-09-17T04:23:28.264Z,92.70
2017-09-17T04:25:57.617Z,93.00
2017-09-17T04:28:26.029Z,93.00
2017-09-17T04:30:56.391Z,93.20
2017-09-17T04:33:25.285Z,93.20
2017-09-17T04:35:54.320Z,93.60
2017-09-17T04:38:24.079Z,93.40
2017-09-17T04:40:52.539Z,93.40
2017-09-17T04:43:20.961Z,93.50
2017-09-17T04:45:49.359Z,93.50
2017-09-17T04:48:17.764Z,93.60
2017-09-17T04:50:46.937Z,93.70
2017-09-17T04:53:15.334Z,93.70
2017-09-17T04:55:44.497Z,93.80
2017-09-17T04:58:12.897Z,93.80
2017-09-17T05:00:41.289Z,93.70
2017-09-17T05:03:10.445Z,93.80
2017-09-17T05:05:38.853Z,93.80
2017-09-17T05:08:08.020Z,93.80
2017-09-17T05:10:36.417Z,93.80
2017-09-17T05:13:04.872Z,93.80
2017-09-17T05:15:33.260Z,93.50
2017-09-17T05:18:01.658Z,93.50
2017-09-17T05:20:30.076Z,93.50
2017-09-17T05:22:58.477Z,93.40
2017-09-17T05:25:26.864Z,93.40
2017-09-17T05:27:55.276Z,93.20
2017-09-17T05:30:24.433Z,93.80
2017-09-17T05:32:52.897Z,93.50
2017-09-17T05:35:21.348Z,93.50
2017-09-17T05:37:50.319Z,92.90
2017-09-17T05:40:19.476Z,93.20
2017-09-17T05:42:47.871Z,92.90
2017-09-17T05:45:16.267Z,93.00
2017-09-17T05:47:44.687Z,92.90
2017-09-17T05:50:13.695Z,92.90
2017-09-17T05:52:42.092Z,92.80
2017-09-17T05:55:10.480Z,92.60
2017-09-17T05:57:38.901Z,92.40
2017-09-17T06:00:07.301Z,92.40
2017-09-17T06:02:35.684Z,92.10
2017-09-17T06:05:04.093Z,91.80
2017-09-17T06:07:32.476Z,91.80
2017-09-17T06:10:00.883Z,91.80
2017-09-17T06:12:29.704Z,91.40
2017-09-17T06:14:58.100Z,91.40
2017-09-17T06:17:26.496Z,91.20
2017-09-17T06:19:54.905Z,90.50
2017-09-17T06:22:26.214Z,90.30
2017-09-17T06:24:55.404Z,90.20
2017-09-17T06:27:23.992Z,90.20
2017-09-17T06:29:52.392Z,88.40
2017-09-17T06:32:21.564Z,90.00
2017-09-17T06:34:50.036Z,89.80
2017-09-17T06:37:18.557Z,89.10
2017-09-17T06:39:47.828Z,87.10
2017-09-17T06:42:16.643Z,87.10
2017-09-17T06:44:46.693Z,88.70
2017-09-17T06:47:15.398Z,89.30
2017-09-17T06:49:43.950Z,88.60
2017-09-17T06:52:12.408Z,88.30
2017-09-17T06:54:41.572Z,88.20
2017-09-17T06:57:09.818Z,88.10
2017-09-17T06:59:38.211Z,87.90
2017-09-17T07:02:06.635Z,86.70
2017-09-17T07:04:35.807Z,86.80
2017-09-17T07:07:05.710Z,86.20
2017-09-17T07:09:34.106Z,86.20
2017-09-17T07:12:02.513Z,86.60
2017-09-17T07:14:31.489Z,85.70
2017-09-17T07:17:00.653Z,85.10
2017-09-17T07:19:29.059Z,85.10
2017-09-17T07:21:58.221Z,85.90
2017-09-17T07:24:26.609Z,85.90
2017-09-17T07:26:55.029Z,86.90
2017-09-17T07:29:24.207Z,85.60
2017-09-17T07:31:52.503Z,85.60
2017-09-17T07:34:21.685Z,85.50
2017-09-17T07:36:50.865Z,85.20
2017-09-17T07:39:19.263Z,85.20
2017-09-17T07:41:48.431Z,84.90
2017-09-17T07:44:16.821Z,84.80
2017-09-17T07:46:45.245Z,84.80
2017-09-17T07:49:13.668Z,85.20
2017-09-17T07:51:42.160Z,85.50
2017-09-17T07:54:11.135Z,86.30
2017-09-17T07:56:40.761Z,83.40
2017-09-17T07:59:09.181Z,85.10
2017-09-17T08:01:37.600Z,84.10
2017-09-17T08:04:06.980Z,83.90
2017-09-17T08:06:35.388Z,80.60
2017-09-17T08:09:03.628Z,81.90
2017-09-17T08:11:32.155Z,81.50
2017-09-17T08:14:01.377Z,81.40
2017-09-17T08:16:31.373Z,81.20
2017-09-17T08:19:00.677Z,82.00
2017-09-17T08:21:30.028Z,80.10
2017-09-17T08:23:58.472Z,80.00
2017-09-17T08:26:26.701Z,80.50
2017-09-17T08:28:55.104Z,79.60
2017-09-17T08:31:24.272Z,79.70
2017-09-17T08:33:52.684Z,79.70
2017-09-17T08:36:21.846Z,78.00
2017-09-17T08:38:50.264Z,78.00
2017-09-17T08:41:19.444Z,79.60
2017-09-17T08:43:48.425Z,78.90
2017-09-17T08:46:16.851Z,78.80
2017-09-17T08:48:46.340Z,78.30
2017-09-17T08:51:14.796Z,76.80
2017-09-17T08:53:43.961Z,75.60
2017-09-17T08:56:12.388Z,75.50
2017-09-17T08:58:41.637Z,76.30
2017-09-17T09:01:09.712Z,76.20
2017-09-17T09:03:38.461Z,76.00
2017-09-17T09:06:07.901Z,76.20
2017-09-17T09:08:38.402Z,80.30
2017-09-17T09:11:07.593Z,80.00
2017-09-17T09:13:37.923Z,78.00
2017-09-17T09:16:06.550Z,78.00
2017-09-17T09:18:35.780Z,78.30
2017-09-17T09:21:04.179Z,78.30
2017-09-17T09:23:32.592Z,78.70
2017-09-17T09:26:01.005Z,78.10
2017-09-17T09:28:30.224Z,76.30
2017-09-17T09:30:58.623Z,76.30
2017-09-17T09:33:27.029Z,77.40
2017-09-17T09:35:55.427Z,79.10
2017-09-17T09:38:24.609Z,78.20
2017-09-17T09:40:53.019Z,78.10
2017-09-17T09:43:22.225Z,76.70
2017-09-17T09:45:50.625Z,76.70
2017-09-17T09:48:19.069Z,74.20
2017-09-17T09:50:48.250Z,73.90
2017-09-17T09:53:16.997Z,73.80
2017-09-17T09:55:45.247Z,72.70
2017-09-17T09:58:13.485Z,74.50
2017-09-17T10:00:42.657Z,73.80
2017-09-17T10:03:11.063Z,73.80
2017-09-17T10:05:40.299Z,71.60
2017-09-17T10:08:08.713Z,71.50
2017-09-17T10:10:37.151Z,73.10
2017-09-17T10:13:05.549Z,70.00
2017-09-17T10:15:33.957Z,70.30
2017-09-17T10:18:02.380Z,68.50
2017-09-17T10:20:30.791Z,68.80
2017-09-17T10:22:59.196Z,72.20
2017-09-17T10:25:27.603Z,68.50
2017-09-17T10:27:56.434Z,70.40
2017-09-17T10:30:25.318Z,70.40
2017-09-17T10:32:53.779Z,66.80
2017-09-17T10:35:22.293Z,68.90
2017-09-17T10:37:51.728Z,69.30
2017-09-17T10:40:20.426Z,69.20
2017-09-17T10:42:49.022Z,71.70
2017-09-17T10:45:17.417Z,67.70
2017-09-17T10:47:45.821Z,67.40
2017-09-17T10:50:14.254Z,65.40
2017-09-17T10:52:42.723Z,64.70
2017-09-17T10:55:11.911Z,61.50
2017-09-17T10:57:40.905Z,60.60
2017-09-17T11:00:10.067Z,61.20
2017-09-17T11:02:38.479Z,60.30
2017-09-17T11:05:07.643Z,60.80
2017-09-17T11:07:36.078Z,60.00
2017-09-17T11:10:04.249Z,59.30
2017-09-17T11:12:32.712Z,59.70
2017-09-17T11:15:01.889Z,57.70
2017-09-17T11:17:31.255Z,57.70
2017-09-17T11:20:00.889Z,57.20
2017-09-17T11:22:29.359Z,60.80
2017-09-17T11:25:02.128Z,58.40
2017-09-17T11:27:32.743Z,58.40
2017-09-17T11:30:01.461Z,60.10
2017-09-17T11:32:30.023Z,58.40
2017-09-17T11:34:58.457Z,61.00
2017-09-17T11:37:27.615Z,56.00
2017-09-17T11:39:56.032Z,55.90
2017-09-17T11:42:25.348Z,57.50
2017-09-17T11:44:53.746Z,57.50
2017-09-17T11:47:22.197Z,56.20
2017-09-17T11:49:50.590Z,54.30
2017-09-17T11:52:19.028Z,56.40
2017-09-17T11:54:48.209Z,54.10
2017-09-17T11:57:17.376Z,52.10
2017-09-17T11:59:45.817Z,52.00
2017-09-17T12:02:14.998Z,43.30
2017-09-17T12:04:44.181Z,42.10
2017-09-17T12:07:12.595Z,42.10
2017-09-17T12:09:42.881Z,43.00
2017-09-17T12:12:11.381Z,42.80
2017-09-17T12:14:40.317Z,43.50
2017-09-17T12:17:10.513Z,44.20
2017-09-17T12:19:38.909Z,42.50
2017-09-17T12:22:08.167Z,39.60
2017-09-17T12:24:36.601Z,39.00
2017-09-17T12:27:05.015Z,41.60
2017-09-17T12:29:34.420Z,41.20
2017-09-17T12:32:03.607Z,44.00
2017-09-17T12:34:32.013Z,44.00
2017-09-17T12:37:01.185Z,50.90
2017-09-17T12:39:29.620Z,50.90
2017-09-17T12:41:58.028Z,53.70
2017-09-17T12:44:26.426Z,53.40
2017-09-17T12:46:55.601Z,54.50
2017-09-17T12:49:23.996Z,55.10
2017-09-17T12:51:53.937Z,48.90
2017-09-17T12:54:22.372Z,48.90
2017-09-17T12:56:50.777Z,46.80
2017-09-17T12:59:20.656Z,39.70
2017-09-17T13:01:49.395Z,39.50
2017-09-17T13:04:18.084Z,34.80
2017-09-17T13:06:47.505Z,37.10
2017-09-17T13:09:17.991Z,34.80
2017-09-17T13:11:46.858Z,35.70
2017-09-17T13:14:15.753Z,34.80
2017-09-17T13:16:44.261Z,32.30
2017-09-17T13:19:13.425Z,34.90
2017-09-17T13:21:41.820Z,34.90
2017-09-17T13:24:10.992Z,36.70
2017-09-17T13:26:39.398Z,36.70
2017-09-17T13:29:08.434Z,34.50
2017-09-17T13:31:36.840Z,34.50
2017-09-17T13:34:05.258Z,34.50
2017-09-17T13:36:34.865Z,34.10
2017-09-17T13:39:16.570Z,31.60
2017-09-17T13:41:44.780Z,31.50
2017-09-17T13:44:12.980Z,32.60
2017-09-17T13:46:41.197Z,32.80
2017-09-17T13:49:09.414Z,35.30
2017-09-17T13:51:38.430Z,39.10
2017-09-17T13:54:07.424Z,40.80
2017-09-17T13:56:36.398Z,43.20
2017-09-17T13:59:05.364Z,43.20
2017-09-17T14:01:39.399Z,43.20
2017-09-17T14:07:29.135Z,39.30
2017-09-17T14:09:58.957Z,39.20
2017-09-17T14:12:27.269Z,38.50
2017-09-17T14:14:55.740Z,38.10
2017-09-17T14:17:23.954Z,39.60
2017-09-17T14:19:53.874Z,46.70
2017-09-17T14:22:22.864Z,47.10
2017-09-17T14:24:52.106Z,47.90
2017-09-17T14:27:20.538Z,47.80
2017-09-17T14:29:51.236Z,48.30
2017-09-17T14:32:20.008Z,48.20
2017-09-17T14:34:48.416Z,49.00
2017-09-17T14:37:16.831Z,50.50
2017-09-17T14:39:45.246Z,51.80
2017-09-17T14:42:13.638Z,53.90
2017-09-17T14:44:42.055Z,51.80
2017-09-17T14:47:11.260Z,53.70
2017-09-17T14:49:39.664Z,53.70
2017-09-17T14:52:08.182Z,54.60
2017-09-17T14:54:36.595Z,56.80
2017-09-17T14:57:06.332Z,56.70
2017-09-17T14:59:34.997Z,56.70
2017-09-17T15:02:04.677Z,57.80
2017-09-17T15:04:34.113Z,59.70
2017-09-17T15:07:02.573Z,59.70
2017-09-17T15:09:31.062Z,57.40
2017-09-17T15:11:59.459Z,57.80
2017-09-17T15:14:27.912Z,50.50
2017-09-17T15:16:57.089Z,47.80
2017-09-17T15:19:25.491Z,47.60
2017-09-17T15:21:54.679Z,46.00
2017-09-17T15:24:23.319Z,46.00
2017-09-17T15:26:51.717Z,46.90
2017-09-17T15:29:20.130Z,47.70
2017-09-17T15:31:48.525Z,45.20
2017-09-17T15:34:16.928Z,46.60
2017-09-17T15:36:47.473Z,42.70
2017-09-17T15:39:15.864Z,41.80
2017-09-17T15:41:44.322Z,44.10
2017-09-17T15:44:13.282Z,45.40
2017-09-17T15:46:42.954Z,46.20
2017-09-17T15:49:12.552Z,48.40
2017-09-17T15:51:41.835Z,52.80
2017-09-17T15:54:11.121Z,54.10
2017-09-17T15:56:40.301Z,56.40
2017-09-17T15:59:08.712Z,56.50
2017-09-17T16:01:39.205Z,57.30
2017-09-17T16:04:09.195Z,55.80
2017-09-17T16:06:40.029Z,55.70
2017-09-17T16:09:08.459Z,57.20
2017-09-17T16:11:36.877Z,57.10
2017-09-17T16:14:06.049Z,58.20
2017-09-17T16:16:34.437Z,58.20
2017-09-17T16:19:02.849Z,59.20
2017-09-17T16:21:31.068Z,60.20
2017-09-17T16:23:59.469Z,61.60
2017-09-17T16:26:28.641Z,63.10
2017-09-17T16:28:57.080Z,62.30
2017-09-17T16:31:25.474Z,62.90
2017-09-17T16:33:53.948Z,63.40
2017-09-17T16:36:22.366Z,63.20
2017-09-17T16:38:50.832Z,64.00
2017-09-17T16:41:19.812Z,65.30
2017-09-17T16:43:50.728Z,67.20
2017-09-17T16:46:19.176Z,67.20
2017-09-17T16:48:48.342Z,68.10
2017-09-17T16:51:16.744Z,68.10
2017-09-17T16:53:45.240Z,68.40
2017-09-17T16:56:14.402Z,69.20
2017-09-17T16:58:42.817Z,69.10
2017-09-17T17:01:11.298Z,70.10
2017-09-17T17:03:39.695Z,70.70
2017-09-17T17:06:08.106Z,70.90
2017-09-17T17:08:36.496Z,71.20
2017-09-17T17:11:04.901Z,71.60
2017-09-17T17:13:33.142Z,72.30
2017-09-17T17:16:01.541Z,71.90
2017-09-17T17:18:29.773Z,72.40
2017-09-17T17:20:58.355Z,72.80
2017-09-17T17:23:28.202Z,72.40
2017-09-17T17:25:56.917Z,73.00
2017-09-17T17:28:25.725Z,73.30
2017-09-17T17:30:54.558Z,74.30
2017-09-17T17:33:22.975Z,75.00
2017-09-17T17:35:51.381Z,76.40
2017-09-17T17:38:19.776Z,76.40
2017-09-17T17:40:48.312Z,75.80
2017-09-17T17:43:16.716Z,76.60
2017-09-17T17:45:45.104Z,74.20
2017-09-17T17:48:13.525Z,73.50
2017-09-17T17:50:42.712Z,75.60
2017-09-17T17:53:11.105Z,75.50
2017-09-17T17:55:40.268Z,75.70
2017-09-17T17:58:08.682Z,75.70
2017-09-17T18:00:37.840Z,76.70
2017-09-17T18:03:06.256Z,76.70
2017-09-17T18:05:35.447Z,76.20
2017-09-17T18:08:04.695Z,76.70
2017-09-17T18:10:33.160Z,76.70
2017-09-17T18:13:01.577Z,78.10
2017-09-17T18:15:29.790Z,77.50
2017-09-17T18:17:58.945Z,78.20
2017-09-17T18:20:27.429Z,78.20
2017-09-17T18:22:55.919Z,78.20
2017-09-17T18:25:24.312Z,77.30
2017-09-17T18:27:53.486Z,76.20
2017-09-17T18:30:21.882Z,76.20
2017-09-17T18:32:51.076Z,77.10
2017-09-17T18:35:19.905Z,76.90
2017-09-17T18:37:48.360Z,76.80
2017-09-17T18:40:17.543Z,77.40
2017-09-17T18:42:46.779Z,77.20
2017-09-17T18:45:15.241Z,77.10
2017-09-17T18:47:43.625Z,77.70
2017-09-17T18:50:11.872Z,78.30
2017-09-17T18:52:41.319Z,80.00
2017-09-17T18:55:09.800Z,79.80
2017-09-17T18:57:38.206Z,81.00
2017-09-17T19:00:06.770Z,81.90
2017-09-17T19:02:35.153Z,82.10
2017-09-17T19:05:03.617Z,82.70
2017-09-17T19:07:32.213Z,83.00
2017-09-17T19:10:00.623Z,83.20
2017-09-17T19:12:29.021Z,83.40
2017-09-17T19:14:58.029Z,83.90
2017-09-17T19:17:26.423Z,83.90
2017-09-17T19:19:54.832Z,84.10
2017-09-17T19:22:23.240Z,84.30
2017-09-17T19:24:52.490Z,83.90
2017-09-17T19:27:20.918Z,83.90
2017-09-17T19:29:50.089Z,84.00
2017-09-17T19:32:18.627Z,83.90
2017-09-17T19:34:47.050Z,83.50
2017-09-17T19:37:15.448Z,83.80
2017-09-17T19:39:43.854Z,84.70
2017-09-17T19:42:12.289Z,83.00
2017-09-17T19:44:40.721Z,82.40
2017-09-17T19:47:08.931Z,82.30
2017-09-17T19:49:37.352Z,82.40
2017-09-17T19:52:05.856Z,82.10
2017-09-17T19:54:35.008Z,82.40
2017-09-17T19:57:03.440Z,82.40
2017-09-17T19:59:31.826Z,82.70
2017-09-17T20:02:00.228Z,83.60
2017-09-17T20:04:29.667Z,83.90
2017-09-17T20:06:58.829Z,83.50
2017-09-17T20:09:27.237Z,83.50
2017-09-17T20:11:56.425Z,85.10
2017-09-17T20:14:25.609Z,84.30
2017-09-17T20:16:54.061Z,84.30
2017-09-17T20:19:22.475Z,85.00
2017-09-17T20:21:51.626Z,85.70
2017-09-17T20:24:20.061Z,85.70
2017-09-17T20:26:49.232Z,85.70
2017-09-17T20:29:17.617Z,85.60
2017-09-17T20:31:46.028Z,85.20
2017-09-17T20:34:14.510Z,85.80
2017-09-17T20:36:42.972Z,86.00
2017-09-17T20:39:12.508Z,85.70
2017-09-17T20:41:40.952Z,85.70
2017-09-17T20:44:10.746Z,86.90
2017-09-17T20:46:39.141Z,86.90
2017-09-17T20:49:08.319Z,86.80
2017-09-17T20:51:36.725Z,86.80
2017-09-17T20:54:05.884Z,86.90
2017-09-17T20:56:34.364Z,86.80
2017-09-17T20:59:02.980Z,86.90
2017-09-17T21:01:31.868Z,87.00
2017-09-17T21:04:00.372Z,87.40
2017-09-17T21:06:29.012Z,87.30
2017-09-17T21:08:57.404Z,87.90
2017-09-17T21:11:26.626Z,89.70
2017-09-17T21:13:55.014Z,89.70
2017-09-17T21:16:23.481Z,89.90
2017-09-17T21:18:51.994Z,90.10
2017-09-17T21:21:20.378Z,90.10
2017-09-17T21:23:48.762Z,89.10
2017-09-17T21:26:17.167Z,88.40
2017-09-17T21:28:45.549Z,88.30
2017-09-17T21:31:14.730Z,89.10
2017-09-17T21:33:43.157Z,89.00
2017-09-17T21:36:11.559Z,88.80
2017-09-17T21:38:40.221Z,88.80
2017-09-17T21:41:09.216Z,88.60
2017-09-17T21:43:38.197Z,88.70
2017-09-17T21:46:06.791Z,88.60
2017-09-17T21:48:35.231Z,89.30
2017-09-17T21:51:04.399Z,89.30
2017-09-17T21:53:32.793Z,90.00
2017-09-17T21:56:01.216Z,89.40
2017-09-17T21:58:29.604Z,89.50
2017-09-17T22:00:58.369Z,89.70
2017-09-17T22:03:26.780Z,90.00
2017-09-17T22:05:55.186Z,90.10
2017-09-17T22:08:24.349Z,90.10
2017-09-17T22:10:52.757Z,90.10
2017-09-17T22:13:21.166Z,90.30
2017-09-17T22:15:50.316Z,90.30
2017-09-17T22:18:18.734Z,90.60
2017-09-17T22:20:47.966Z,90.10
2017-09-17T22:23:16.449Z,90.10
2017-09-17T22:25:45.574Z,90.10
2017-09-17T22:28:15.014Z,90.30
2017-09-17T22:30:44.779Z,90.10
2017-09-17T22:33:13.193Z,90.40
2017-09-17T22:35:42.349Z,90.50
2017-09-17T22:38:10.736Z,90.50
2017-09-17T22:40:39.144Z,90.60
2017-09-17T22:43:08.300Z,90.30
2017-09-17T22:45:36.690Z,90.30
2017-09-17T22:48:05.095Z,89.90
2017-09-17T22:50:33.489Z,89.80
2017-09-17T22:53:02.644Z,90.10
2017-09-17T22:55:31.045Z,90.10
2017-09-17T22:57:59.425Z,89.40
2017-09-17T23:00:28.227Z,89.50
2017-09-17T23:02:57.398Z,90.10
2017-09-17T23:05:26.632Z,89.60
2017-09-17T23:07:55.293Z,89.60
2017-09-17T23:10:25.763Z,89.20
2017-09-17T23:12:54.937Z,88.00
2017-09-17T23:15:24.705Z,87.90
2017-09-17T23:17:55.307Z,87.70
2017-09-17T23:20:25.626Z,88.00
2017-09-17T23:22:55.548Z,87.10
2017-09-17T23:25:26.485Z,86.90
2017-09-17T23:27:56.504Z,86.90
2017-09-17T23:30:25.287Z,86.50
2017-09-17T23:32:53.831Z,86.50
2017-09-17T23:35:22.236Z,86.50
2017-09-17T23:37:50.630Z,86.60
2017-09-17T23:40:19.268Z,86.20
2017-09-17T23:42:48.420Z,86.00
2017-09-17T23:45:16.804Z,86.10
2017-09-17T23:47:45.204Z,86.70
2017-09-17T23:50:14.367Z,86.20
2017-09-17T23:52:42.754Z,86.20
2017-09-17T23:55:10.972Z,86.80
2017-09-17T23:57:39.445Z,85.90
